Hughesville, Missouri
Current Conditions -  °F | °C
As of 3:43 PM on Saturday 22 Nov 2014 (Local Time) from KDMO Reporting Station
Scattered Clouds Scattered Clouds  
Wind Chill: 60°   Ceiling: Unl
Heat Index: 60°   Visibility: 10mi
Dew Point: 51°   Wind: 12mph
Humidity: 72%   Direction: 180°S
Pressure: 29.86"   Gusts: NA
Location:  38.84°N, 93.3°W
Report Text: KDMO 222143Z AUTO 18010KT 10SM SCT026 16/11 A2986 RMK AO2 T01560106
Loading
Personal Weather Stations






























Interactive Weather Map New forecast layout! Learn more

10-Day Weather Forecast

Advertisements
Track Severe Weather on mobile